createdAt,value
2022-11-12T00:02:27.866Z,5.18
2022-11-12T00:05:14.999Z,4.65
2022-11-12T00:08:02.371Z,4.55
2022-11-12T00:10:49.242Z,5.10
2022-11-12T00:13:35.772Z,4.97
2022-11-12T00:16:22.435Z,5.32
2022-11-12T00:19:09.375Z,5.22
2022-11-12T00:21:56.338Z,5.45
2022-11-12T00:24:42.734Z,5.90
2022-11-12T00:27:29.007Z,6.32
2022-11-12T00:30:16.837Z,4.82
2022-11-12T00:33:04.672Z,4.85
2022-11-12T00:35:50.897Z,5.20
2022-11-12T00:38:37.529Z,5.40
2022-11-12T00:41:24.072Z,5.72
2022-11-12T00:44:11.089Z,6.03
2022-11-12T00:46:57.492Z,6.35
2022-11-12T00:49:43.821Z,6.00
2022-11-12T00:52:30.345Z,6.10
2022-11-12T00:55:16.801Z,6.05
2022-11-12T00:58:03.624Z,5.55
2022-11-12T01:00:50.648Z,6.55
2022-11-12T01:03:44.422Z,5.70
2022-11-12T01:06:31.066Z,5.05
2022-11-12T01:09:18.561Z,4.53
2022-11-12T01:12:06.317Z,4.32
2022-11-12T01:14:53.097Z,4.43
2022-11-12T01:17:40.315Z,4.28
2022-11-12T01:20:26.492Z,4.82
2022-11-12T01:23:13.129Z,4.60
2022-11-12T01:26:04.292Z,4.75
2022-11-12T01:28:51.756Z,4.90
2022-11-12T01:31:39.374Z,4.65
2022-11-12T01:34:26.609Z,4.15
2022-11-12T01:37:13.715Z,5.63
2022-11-12T01:40:00.365Z,5.35
2022-11-12T01:42:53.941Z,6.20
2022-11-12T01:45:46.636Z,4.50
2022-11-12T01:48:39.736Z,4.22
2022-11-12T01:51:37.570Z,4.63
2022-11-12T01:54:27.109Z,4.63
2022-11-12T01:57:15.733Z,4.88
2022-11-12T02:00:10.075Z,4.68
2022-11-12T02:03:01.061Z,5.00
2022-11-12T02:05:52.044Z,4.35
2022-11-12T02:08:40.267Z,4.75
2022-11-12T02:11:26.841Z,4.63
2022-11-12T02:14:14.431Z,4.38
2022-11-12T02:17:01.504Z,4.22
2022-11-12T02:19:48.728Z,4.40
2022-11-12T02:22:35.381Z,4.60
2022-11-12T02:25:24.633Z,4.65
2022-11-12T02:28:10.939Z,5.07
2022-11-12T02:30:57.712Z,5.28
2022-11-12T02:33:44.569Z,5.25
2022-11-12T02:36:31.335Z,4.80
2022-11-12T02:39:17.904Z,4.93
2022-11-12T02:42:04.819Z,4.75
2022-11-12T02:44:51.532Z,4.22
2022-11-12T02:47:38.216Z,4.30
2022-11-12T02:50:25.067Z,5.30
2022-11-12T02:53:11.966Z,4.60
2022-11-12T02:56:00.204Z,4.53
2022-11-12T02:58:47.396Z,4.70
2022-11-12T03:01:34.620Z,4.65
2022-11-12T03:04:21.198Z,4.60
2022-11-12T03:07:08.189Z,4.75
2022-11-12T03:09:54.878Z,4.05
2022-11-12T03:12:41.145Z,4.30
2022-11-12T03:15:29.634Z,5.03
2022-11-12T03:18:16.641Z,4.65
2022-11-12T03:21:03.515Z,4.82
2022-11-12T03:23:50.235Z,4.47
2022-11-12T03:26:37.008Z,4.70
2022-11-12T03:29:23.967Z,4.10
2022-11-12T03:32:10.581Z,4.13
2022-11-12T03:34:58.128Z,4.32
2022-11-12T03:38:05.727Z,4.65
2022-11-12T03:40:52.503Z,4.53
2022-11-12T03:43:39.549Z,4.38
2022-11-12T03:46:26.426Z,4.38
2022-11-12T03:49:13.226Z,4.63
2022-11-12T03:51:59.489Z,4.22
2022-11-12T03:54:46.105Z,4.13
2022-11-12T03:57:33.097Z,4.18
2022-11-12T04:00:22.726Z,4.32
2022-11-12T04:03:09.098Z,4.05
2022-11-12T04:06:15.085Z,4.35
2022-11-12T04:09:01.540Z,4.10
2022-11-12T04:11:48.303Z,4.63
2022-11-12T04:14:35.378Z,4.15
2022-11-12T04:17:40.828Z,4.30
2022-11-12T04:21:06.252Z,3.60
2022-11-12T04:23:53.202Z,4.15
2022-11-12T04:26:40.091Z,3.97
2022-11-12T04:29:46.015Z,4.10
2022-11-12T04:32:36.962Z,4.28
2022-11-12T04:35:27.730Z,4.35
2022-11-12T04:38:14.121Z,4.90
2022-11-12T04:41:19.811Z,4.70
2022-11-12T04:44:25.479Z,4.03
2022-11-12T04:47:12.287Z,4.10
2022-11-12T04:49:59.617Z,4.22
2022-11-12T04:52:46.315Z,4.00
2022-11-12T04:55:33.331Z,4.40
2022-11-12T04:58:20.323Z,4.72
2022-11-12T05:01:07.107Z,4.43
2022-11-12T05:03:53.462Z,4.60
2022-11-12T05:06:52.168Z,4.20
2022-11-12T05:09:39.146Z,4.40
2022-11-12T05:12:26.993Z,4.15
2022-11-12T05:15:13.535Z,3.85
2022-11-12T05:18:00.831Z,3.88
2022-11-12T05:20:48.029Z,3.67
2022-11-12T05:23:34.207Z,3.72
2022-11-12T05:26:20.656Z,4.00
2022-11-12T05:29:08.921Z,3.85
2022-11-12T05:31:56.343Z,3.50
2022-11-12T05:34:43.456Z,3.95
2022-11-12T05:37:30.904Z,3.75
2022-11-12T05:40:17.562Z,3.83
2022-11-12T05:43:04.051Z,3.90
2022-11-12T05:45:50.640Z,3.70
2022-11-12T05:48:37.095Z,3.70
2022-11-12T05:51:24.697Z,3.28
2022-11-12T05:54:12.470Z,3.25
2022-11-12T05:56:59.661Z,2.85
2022-11-12T05:59:46.163Z,2.95
2022-11-12T06:02:32.799Z,2.92
2022-11-12T06:05:20.256Z,3.20
2022-11-12T06:08:07.280Z,3.25
2022-11-12T06:10:55.512Z,3.10
2022-11-12T06:13:42.438Z,3.13
2022-11-12T06:16:31.382Z,3.30
2022-11-12T06:19:18.408Z,3.60
2022-11-12T06:22:05.001Z,3.67
2022-11-12T06:24:51.733Z,3.30
2022-11-12T06:27:38.798Z,3.78
2022-11-12T06:30:26.012Z,4.10
2022-11-12T06:33:12.479Z,4.40
2022-11-12T06:36:03.423Z,4.18
2022-11-12T06:38:50.393Z,4.32
2022-11-12T06:41:36.944Z,4.00
2022-11-12T06:44:23.312Z,4.43
2022-11-12T06:47:10.974Z,4.57
2022-11-12T06:49:57.814Z,3.95
2022-11-12T06:52:44.004Z,4.15
2022-11-12T06:55:30.528Z,3.67
2022-11-12T06:58:17.541Z,4.07
2022-11-12T07:01:17.493Z,4.15
2022-11-12T07:04:04.415Z,4.60
2022-11-12T07:06:51.586Z,4.35
2022-11-12T07:09:38.073Z,4.97
2022-11-12T07:12:25.226Z,5.40
2022-11-12T07:15:11.680Z,5.00
2022-11-12T07:17:58.040Z,5.15
2022-11-12T07:20:44.699Z,5.18
2022-11-12T07:23:34.223Z,4.90
2022-11-12T07:26:24.515Z,5.45
2022-11-12T07:29:11.461Z,5.30
2022-11-12T07:31:58.790Z,5.40
2022-11-12T07:34:45.552Z,4.60
2022-11-12T07:37:33.701Z,4.97
2022-11-12T07:40:22.017Z,5.47
2022-11-12T07:43:08.668Z,6.10
2022-11-12T07:46:07.513Z,5.68
2022-11-12T07:49:04.145Z,5.22
2022-11-12T07:51:50.925Z,4.70
2022-11-12T07:54:37.706Z,4.95
2022-11-12T07:57:25.126Z,4.35
2022-11-12T08:00:12.574Z,4.40
2022-11-12T08:03:05.064Z,4.47
2022-11-12T08:05:54.418Z,4.32
2022-11-12T08:08:40.993Z,4.90
2022-11-12T08:11:27.858Z,5.07
2022-11-12T08:14:14.758Z,5.63
2022-11-12T08:17:01.420Z,5.22
2022-11-12T08:19:48.032Z,5.13
2022-11-12T08:22:34.376Z,4.95
2022-11-12T08:25:20.779Z,5.38
2022-11-12T08:28:07.794Z,5.13
2022-11-12T08:30:55.011Z,5.00
2022-11-12T12:11:01.167Z,7.65
2022-11-12T12:14:52.262Z,6.97
2022-11-12T12:24:05.795Z,8.43
2022-11-12T18:05:10.399Z,23.40
2022-11-12T18:07:58.036Z,21.60
2022-11-12T18:10:47.098Z,21.23
2022-11-12T18:13:33.827Z,19.40
2022-11-12T18:16:31.688Z,22.15
2022-11-12T18:19:18.710Z,22.23
2022-11-12T18:22:05.774Z,18.02
2022-11-12T18:24:53.147Z,18.23
2022-11-12T18:27:39.742Z,17.33
2022-11-12T18:30:26.653Z,17.88
2022-11-12T18:33:13.512Z,17.27
2022-11-12T18:36:12.669Z,20.10
2022-11-12T18:39:01.056Z,21.25
2022-11-12T18:41:47.654Z,20.02
2022-11-12T18:44:34.328Z,15.25
2022-11-12T18:47:23.215Z,15.20
2022-11-12T18:50:10.677Z,21.13
2022-11-12T18:52:57.270Z,16.42
2022-11-12T18:55:44.399Z,14.32
2022-11-12T18:58:35.140Z,14.40
2022-11-12T19:01:25.311Z,14.90
2022-11-12T19:04:12.079Z,13.38
2022-11-12T19:06:59.158Z,15.68
2022-11-12T19:09:45.675Z,15.73
2022-11-12T19:12:32.202Z,14.60
2022-11-12T19:15:24.049Z,15.45
2022-11-12T19:18:15.169Z,14.63
2022-11-12T19:21:09.606Z,13.43
2022-11-12T19:23:57.672Z,14.80
2022-11-12T19:26:44.839Z,13.95
2022-11-12T19:29:32.730Z,14.25
2022-11-12T19:32:23.687Z,13.65
2022-11-12T19:35:15.005Z,12.63
2022-11-12T19:38:02.883Z,13.05
2022-11-12T19:40:49.835Z,13.50
2022-11-12T19:43:40.512Z,12.45
2022-11-12T19:46:27.548Z,12.80
2022-11-12T19:49:14.497Z,12.18
2022-11-12T19:52:03.059Z,12.15
2022-11-12T19:54:51.140Z,11.05
2022-11-12T19:57:37.916Z,12.15
2022-11-12T20:00:25.259Z,11.68
2022-11-12T20:03:12.279Z,11.20
2022-11-12T20:06:08.992Z,10.80
2022-11-12T20:09:04.133Z,9.80
2022-11-12T20:11:51.167Z,10.10
2022-11-12T20:14:37.845Z,11.05
2022-11-12T20:17:24.410Z,11.13
2022-11-12T20:20:11.863Z,9.45
2022-11-12T20:22:58.823Z,10.18
2022-11-12T20:25:46.248Z,10.30
2022-11-12T20:28:38.498Z,10.50
2022-11-12T20:31:25.115Z,9.52
2022-11-12T20:34:13.165Z,9.63
2022-11-12T20:36:59.971Z,10.15
2022-11-12T20:39:47.259Z,9.68
2022-11-12T20:42:33.737Z,8.85
2022-11-12T20:45:21.187Z,9.40
